Time;durP1;ratioP1;P1;durP2;ratioP2;P2;SDS_P1;SDS_P2;PMS_P1;PMS_P2;Temp;Humidity;BMP_temperature;BMP_pressure;BME280_temperature;BME280_humidity;BME280_pressure;Samples;Min_cycle;Max_cycle;Signal;HPM_P1;HPM_P2
2022/03/27 00:08:18;;;;;;;5.53;2.40;;;;;;;13.18;37.53;101408.00;18305074;32;20152;-65
2022/03/27 00:18:23;;;;;;;6.82;3.03;;;;;;;12.00;41.13;101416.87;18304296;32;20359;-65
2022/03/27 00:28:31;;;;;;;6.37;2.92;;;;;;;12.66;39.70;101405.12;18303686;32;20116;-65
2022/03/27 00:38:36;;;;;;;5.50;2.72;;;;;;;12.21;40.88;101417.09;18304551;32;20102;-65
2022/03/27 00:48:40;;;;;;;6.75;2.67;;;;;;;11.55;42.40;101421.69;18302982;32;20108;-65
2022/03/27 00:58:44;;;;;;;7.47;2.67;;;;;;;11.26;42.67;101422.25;18302381;32;20116;-65
2022/03/27 01:19:12;;;;;;;4.53;2.55;;;;;;;10.18;45.29;101426.00;18309236;32;20093;-64
2022/03/27 01:29:18;;;;;;;5.87;2.35;;;;;;;10.05;45.26;101437.97;18309237;32;20140;-65
2022/03/27 01:39:21;;;;;;;7.07;3.03;;;;;;;9.74;46.23;101445.25;18308991;32;20157;-64
2022/03/27 01:49:26;;;;;;;6.03;2.72;;;;;;;9.24;48.08;101456.47;18309006;32;20453;-65
2022/03/27 01:59:30;;;;;;;4.47;2.17;;;;;;;9.04;48.22;101463.91;18308236;32;20086;-64
2022/03/27 02:09:35;;;;;;;5.68;2.42;;;;;;;8.85;48.48;101473.91;18309141;32;20104;-64
2022/03/27 02:19:38;;;;;;;6.50;3.05;;;;;;;8.94;48.00;101474.13;18307721;32;20374;-64
2022/03/27 02:29:43;;;;;;;10.18;3.53;;;;;;;9.02;46.96;101477.78;18307196;32;20390;-64
2022/03/27 02:39:46;;;;;;;7.03;3.08;;;;;;;8.67;48.77;101508.19;18307279;32;20097;-64
2022/03/27 02:49:51;;;;;;;6.10;2.33;;;;;;;8.22;49.38;101512.28;18308120;32;20141;-64
2022/03/27 02:59:55;;;;;;;11.07;4.00;;;;;;;7.78;50.91;101518.97;18307638;32;20116;-64
2022/03/27 03:09:59;;;;;;;3.22;1.87;;;;;;;7.71;50.82;101523.09;18306592;32;20112;-64
2022/03/27 03:20:03;;;;;;;6.55;3.22;;;;;;;7.61;51.10;101531.47;18306295;32;20097;-64
2022/03/27 03:30:10;;;;;;;8.40;2.87;;;;;;;7.32;51.62;101540.22;18305342;32;20115;-64
2022/03/27 03:40:14;;;;;;;10.63;3.35;;;;;;;7.28;51.71;101545.28;18306886;32;20090;-64
2022/03/27 03:50:19;;;;;;;5.00;2.97;;;;;;;7.14;52.34;101561.28;18305228;32;20102;-64
2022/03/27 04:00:23;;;;;;;4.72;3.33;;;;;;;7.10;51.64;101572.44;18304862;32;20146;-64
2022/03/27 04:10:28;;;;;;;6.85;2.60;;;;;;;6.78;51.52;101583.56;18304955;32;20194;-64
2022/03/27 04:20:31;;;;;;;6.05;2.03;;;;;;;6.28;53.29;101600.91;18304350;32;20175;-64
2022/03/27 04:30:37;;;;;;;4.57;2.58;;;;;;;6.42;52.74;101617.81;18304014;32;20105;-64
2022/03/27 04:40:41;;;;;;;3.70;2.72;;;;;;;5.99;54.36;101627.50;18303447;32;20117;-64
2022/03/27 04:50:45;;;;;;;5.85;2.42;;;;;;;5.82;54.38;101642.47;18302937;32;20089;-64
2022/03/27 05:00:49;;;;;;;3.25;1.62;;;;;;;5.91;54.85;101647.09;18302346;32;20113;-64
2022/03/27 05:10:54;;;;;;;3.40;2.00;;;;;;;6.16;55.05;101661.00;18302108;32;20108;-64
2022/03/27 05:20:57;;;;;;;2.70;1.98;;;;;;;6.63;53.81;101655.69;18301406;32;20113;-64
2022/03/27 05:31:02;;;;;;;5.35;2.72;;;;;;;7.13;51.84;101673.81;18300669;32;20430;-64
2022/03/27 05:41:06;;;;;;;5.05;1.95;;;;;;;8.17;51.84;101671.75;18300191;32;20140;-64
2022/03/27 05:51:11;;;;;;;10.95;3.20;;;;;;;11.18;44.70;101699.22;18301759;32;20120;-67
2022/03/27 06:01:14;;;;;;;13.35;4.40;;;;;;;14.10;39.29;101715.31;18307744;32;20471;-65
2022/03/27 06:11:23;;;;;;;10.57;4.15;;;;;;;17.52;33.63;101712.66;18307288;32;20465;-65
2022/03/27 06:21:26;;;;;;;8.77;3.33;;;;;;;19.22;30.50;101719.22;18307626;32;20097;-65
2022/03/27 06:31:31;;;;;;;8.05;3.72;;;;;;;21.08;27.14;101730.38;18307129;32;20344;-66
2022/03/27 06:41:34;;;;;;;6.43;2.83;;;;;;;22.11;26.01;101743.59;18307212;32;20346;-65
2022/03/27 06:51:39;;;;;;;7.45;3.17;;;;;;;22.25;24.66;101764.47;18306822;32;20098;-66
2022/03/27 07:12:06;;;;;;;4.90;2.90;;;;;;;19.93;28.22;101785.91;18306626;32;20100;-65
2022/03/27 07:22:09;;;;;;;8.90;2.97;;;;;;;17.65;32.75;101805.81;18305223;32;20435;-65
2022/03/27 07:32:15;;;;;;;7.20;3.08;;;;;;;18.81;30.64;101808.91;18305657;32;20118;-65
2022/03/27 07:42:18;;;;;;;6.57;2.75;;;;;;;20.64;28.13;101815.41;18305612;32;20106;-66
2022/03/27 07:52:23;;;;;;;6.62;2.67;;;;;;;21.54;26.80;101804.47;18305280;32;20081;-65
2022/03/27 08:02:27;;;;;;;6.35;3.00;;;;;;;21.47;26.37;101807.28;18305574;32;20112;-65
2022/03/27 08:12:32;;;;;;;4.65;2.28;;;;;;;19.02;30.83;101817.44;18304525;32;20120;-65
2022/03/27 08:22:35;;;;;;;5.82;2.40;;;;;;;18.91;30.75;101810.50;18303624;32;20116;-68
2022/03/27 08:32:40;;;;;;;4.65;2.17;;;;;;;17.65;32.86;101829.59;18302770;32;20141;-65
2022/03/27 08:42:45;;;;;;;3.70;1.98;;;;;;;16.90;34.81;101817.75;18303444;32;20101;-64
2022/03/27 08:52:56;;;;;;;7.15;2.35;;;;;;;17.60;33.60;101825.19;18297222;32;20106;-65
2022/03/27 09:03:02;;;;;;;5.10;1.98;;;;;;;17.16;34.85;101815.88;18301185;32;20422;-64
2022/03/27 09:13:11;;;;;;;5.72;2.65;;;;;;;17.18;34.81;101833.44;18302147;32;20112;-65
2022/03/27 09:23:23;;;;;;;6.05;2.12;;;;;;;17.44;34.56;101831.50;18301298;32;20104;-65
2022/03/27 09:33:32;;;;;;;5.95;2.72;;;;;;;18.38;32.42;101813.00;18308931;32;20105;-65
2022/03/27 09:43:36;;;;;;;6.60;3.03;;;;;;;19.47;30.87;101804.38;18308710;32;20092;-65
2022/03/27 09:53:40;;;;;;;8.55;2.80;;;;;;;21.24;27.68;101804.31;18308833;32;20185;-65
2022/03/27 10:04:00;;;;;;;7.22;2.60;;;;;;;24.48;22.67;101795.19;18308563;32;20134;-66
2022/03/27 10:14:06;;;;;;;7.77;3.23;;;;;;;23.82;23.43;101786.91;18308226;32;20700;-66
2022/03/27 10:24:13;;;;;;;8.43;2.50;;;;;;;21.94;25.98;101806.09;18307461;32;20163;-65
2022/03/27 10:34:18;;;;;;;7.22;2.87;;;;;;;21.53;26.81;101800.03;18308408;32;20448;-65
2022/03/27 10:44:27;;;;;;;6.82;2.95;;;;;;;22.33;25.17;101796.13;18306307;32;20108;-65
2022/03/27 10:54:32;;;;;;;7.78;3.45;;;;;;;23.61;23.96;101785.87;18308026;32;20412;-66
2022/03/27 11:04:41;;;;;;;5.35;2.60;;;;;;;21.66;26.28;101793.50;18306814;32;20098;-66
2022/03/27 11:15:02;;;;;;;7.15;3.33;;;;;;;19.93;29.89;101772.66;18306538;32;20163;-65
2022/03/27 11:25:32;;;;;;;5.32;2.47;;;;;;;19.84;29.01;101771.03;18305719;32;20093;-66
2022/03/27 11:35:37;;;;;;;8.98;3.25;;;;;;;19.38;30.24;101751.56;18305914;32;20445;-65
2022/03/27 11:45:40;;;;;;;11.48;3.97;;;;;;;20.02;29.35;101743.34;18305721;32;20089;-65
2022/03/27 11:55:45;;;;;;;7.25;2.58;;;;;;;19.77;29.18;101733.19;18306069;32;20098;-65
2022/03/27 12:05:49;;;;;;;7.22;3.12;;;;;;;20.08;28.97;101727.28;18304709;32;20086;-65
2022/03/27 12:15:55;;;;;;;5.37;2.37;;;;;;;19.47;29.79;101724.03;18305707;32;20167;-65
2022/03/27 12:26:04;;;;;;;6.43;3.15;;;;;;;19.52;29.60;101712.47;18289750;32;494362;-65
2022/03/27 12:36:10;;;;;;;5.97;2.37;;;;;;;19.31;29.12;101707.56;18304104;32;20094;-65
2022/03/27 12:46:21;;;;;;;7.28;2.72;;;;;;;20.06;27.63;101692.00;18304017;32;20088;-65
2022/03/27 12:56:26;;;;;;;7.05;3.22;;;;;;;20.20;26.73;101681.09;18303164;32;20137;-66
2022/03/27 13:06:35;;;;;;;6.75;3.15;;;;;;;20.36;26.68;101668.34;18301399;32;20143;-65
2022/03/27 13:16:44;;;;;;;7.22;2.53;;;;;;;20.38;27.11;101661.22;18302322;32;20140;-65
2022/03/27 13:26:49;;;;;;;8.00;3.12;;;;;;;20.16;27.92;101652.03;18301087;32;20117;-65
2022/03/27 13:36:55;;;;;;;5.75;2.70;;;;;;;20.09;26.57;101633.59;18300659;32;20129;-65
2022/03/27 13:47:00;;;;;;;5.50;2.70;;;;;;;20.30;26.46;101639.34;18301250;32;20093;-65
2022/03/27 13:57:06;;;;;;;7.40;2.70;;;;;;;20.46;26.33;101620.41;18299499;32;20150;-65
2022/03/27 14:07:10;;;;;;;6.40;2.70;;;;;;;20.63;26.04;101612.91;18298641;32;20085;-65
2022/03/27 14:17:15;;;;;;;5.53;2.42;;;;;;;20.65;25.75;101610.22;18305538;32;20151;-65
2022/03/27 14:27:18;;;;;;;4.47;2.00;;;;;;;20.23;26.80;101590.03;18307493;32;20406;-65
2022/03/27 14:37:25;;;;;;;6.32;3.10;;;;;;;20.02;27.27;101572.84;18308299;32;20184;-65
2022/03/27 14:47:32;;;;;;;6.72;2.70;;;;;;;20.37;26.17;101577.28;18307473;32;20094;-65
2022/03/27 14:57:38;;;;;;;7.28;2.47;;;;;;;20.45;26.44;101566.50;18307840;32;20117;-65
2022/03/27 15:07:42;;;;;;;9.77;3.12;;;;;;;20.47;26.37;101567.34;18306701;32;20406;-65
2022/03/27 15:17:47;;;;;;;6.50;2.47;;;;;;;20.38;26.50;101563.13;18306601;32;20089;-64
2022/03/27 15:27:51;;;;;;;5.87;2.45;;;;;;;20.14;26.58;101553.13;18305038;32;20111;-65
2022/03/27 15:37:55;;;;;;;5.15;2.12;;;;;;;20.04;27.08;101556.00;18306007;32;20660;-66
2022/03/27 15:48:02;;;;;;;5.05;2.72;;;;;;;19.58;27.81;101557.84;18306910;32;20144;-65
2022/03/27 15:58:07;;;;;;;8.30;3.00;;;;;;;19.53;27.75;101560.59;18305284;32;20098;-65
2022/03/27 16:08:12;;;;;;;8.55;2.90;;;;;;;19.65;27.20;101564.78;18305867;32;20116;-65
2022/03/27 16:18:16;;;;;;;7.72;3.17;;;;;;;19.60;27.33;101571.97;18304291;32;20143;-65
2022/03/27 16:28:20;;;;;;;6.15;2.47;;;;;;;19.86;27.12;101573.16;18304202;32;20136;-65
2022/03/27 16:38:24;;;;;;;4.45;2.35;;;;;;;19.45;27.89;101570.50;18303491;32;20112;-65
2022/03/27 16:48:28;;;;;;;6.60;2.35;;;;;;;19.30;28.07;101578.75;18303185;32;20116;-65
2022/03/27 16:58:32;;;;;;;6.10;2.47;;;;;;;18.72;29.34;101583.31;18302063;32;20434;-66
2022/03/27 17:08:36;;;;;;;8.27;3.05;;;;;;;18.10;30.40;101581.63;18300134;32;20137;-66
2022/03/27 17:18:41;;;;;;;12.07;3.30;;;;;;;17.63;31.44;101584.03;18301216;32;20094;-66
2022/03/27 17:29:05;;;;;;;94.20;14.98;;;;;;;17.02;32.45;101583.81;18299631;32;20120;-66
2022/03/27 17:39:10;;;;;;;10.30;3.15;;;;;;;16.27;34.34;101591.47;18299634;32;20093;-65
2022/03/27 17:49:13;;;;;;;7.28;2.97;;;;;;;15.56;35.36;101598.84;18302807;32;20782;-65
2022/03/27 17:59:19;;;;;;;8.48;4.10;;;;;;;14.86;36.91;101613.88;18308017;32;20112;-67
2022/03/27 18:09:22;;;;;;;17.87;6.50;;;;;;;14.17;38.51;101618.16;18309178;32;20090;-67
2022/03/27 18:19:27;;;;;;;16.52;4.53;;;;;;;13.50;39.94;101621.41;18307528;32;20101;-67
2022/03/27 18:29:33;;;;;;;11.55;5.05;;;;;;;13.23;40.10;101636.13;18307537;32;20450;-67
2022/03/27 18:39:38;;;;;;;23.60;8.27;;;;;;;12.56;40.87;101645.16;18306854;32;20137;-67
2022/03/27 18:49:41;;;;;;;10.23;3.42;;;;;;;12.02;41.92;101648.97;18307257;32;20097;-67
2022/03/27 18:59:49;;;;;;;10.13;3.65;;;;;;;11.19;43.31;101646.09;18305971;32;20126;-67
2022/03/27 19:09:52;;;;;;;7.07;3.25;;;;;;;10.87;43.21;101649.94;18305957;32;20136;-67
2022/03/27 19:19:59;;;;;;;5.97;2.90;;;;;;;10.59;43.89;101659.91;18303573;32;20193;-67
2022/03/27 19:30:02;;;;;;;9.00;3.12;;;;;;;10.46;43.31;101665.78;18295473;32;20106;-67
2022/03/27 19:40:27;;;;;;;13.05;5.12;;;;;;;10.12;43.79;101666.81;18301421;32;20155;-67
2022/03/27 19:50:50;;;;;;;8.80;3.47;;;;;;;10.03;44.19;101653.59;18299356;32;20386;-67
2022/03/27 20:00:55;;;;;;;10.48;4.90;;;;;;;9.95;44.22;101670.81;18305348;32;20121;-66
2022/03/27 20:10:59;;;;;;;12.88;5.80;;;;;;;9.67;44.67;101691.09;18304463;32;20108;-67
2022/03/27 20:21:04;;;;;;;13.32;6.20;;;;;;;9.79;44.88;101693.09;18303988;32;20187;-67
2022/03/27 20:31:07;;;;;;;11.75;5.57;;;;;;;9.69;44.67;101711.13;18300563;32;20118;-67
2022/03/27 20:41:12;;;;;;;11.45;5.28;;;;;;;9.71;43.52;101713.78;18303594;32;20095;-67
2022/03/27 20:51:16;;;;;;;12.95;4.47;;;;;;;9.33;44.67;101721.59;18303308;32;20101;-67
2022/03/27 21:01:21;;;;;;;11.00;4.97;;;;;;;9.05;45.09;101723.53;18302648;32;20167;-67
2022/03/27 21:11:24;;;;;;;12.80;5.25;;;;;;;8.91;45.65;101734.44;18298359;32;20086;-67
2022/03/27 21:21:30;;;;;;;12.07;4.78;;;;;;;8.52;46.69;101727.34;18302486;32;20413;-67
2022/03/27 21:31:33;;;;;;;10.77;4.60;;;;;;;8.12;48.02;101729.66;18309542;32;20101;-67
2022/03/27 21:41:39;;;;;;;15.32;5.40;;;;;;;7.70;48.65;101736.22;18310149;32;20097;-67
2022/03/27 21:51:42;;;;;;;9.57;4.05;;;;;;;7.72;48.35;101724.13;18309952;32;20093;-67
2022/03/27 22:01:47;;;;;;;8.35;4.05;;;;;;;7.21;47.80;101729.47;18308753;32;20105;-67
2022/03/27 22:11:54;;;;;;;9.73;4.10;;;;;;;6.88;49.09;101734.41;18308609;32;20108;-67
2022/03/27 22:21:59;;;;;;;8.70;3.28;;;;;;;6.85;49.26;101737.78;18308073;32;20101;-66
2022/03/27 22:32:04;;;;;;;6.18;3.87;;;;;;;6.73;50.35;101733.03;18308599;32;20113;-66
2022/03/27 22:42:10;;;;;;;7.68;3.10;;;;;;;6.31;51.06;101738.47;18307514;32;20089;-66
2022/03/27 22:52:13;;;;;;;5.78;3.30;;;;;;;5.95;51.71;101743.16;18307282;32;20123;-66
2022/03/27 23:02:18;;;;;;;6.32;2.90;;;;;;;5.88;52.64;101738.59;18306713;32;20508;-66
2022/03/27 23:12:21;;;;;;;7.55;3.12;;;;;;;5.83;51.32;101734.91;18306351;32;20093;-66
2022/03/27 23:22:26;;;;;;;6.50;3.33;;;;;;;5.68;51.37;101735.22;18306259;32;20459;-66
2022/03/27 23:32:29;;;;;;;5.90;3.55;;;;;;;5.76;51.80;101738.97;18305938;32;20126;-67
2022/03/27 23:42:34;;;;;;;7.03;3.12;;;;;;;5.81;53.54;101733.97;18305461;32;20089;-66
2022/03/27 23:52:40;;;;;;;4.72;2.22;;;;;;;5.58;52.80;101733.94;18305334;32;20465;-66
